SUSO

Nueva Hesperides International Airport

Salto, Uruguay
TAF SUSO 210515Z 2106/2206 36010KT 9999 SCT015 BKN080 TX28/2118Z TN19/2110Z TEMPO 2106/2116 5000 TSRA BKN010 FEW040CB BKN060
Issued Valid From Valid To
Apr-21 @ 05:15 UTC
(5 hours ago)
Apr-21 @ 06:00 UTC
(4 hours ago)
Apr-22 @ 06:00 UTC
(in 20 hours)
Apr-21 @ 06:00 to Apr-22 @ 06:00
TAF SUSO 210515Z 2106/2206 36010KT 9999 SCT015 BKN080 TX28/2118Z TN19/2110Z
Wind Visibility Clouds
360° at 10 knots 10,000+ meters
  • Scattered at 1,500' AGL
  • Broken at 8,000' AGL
Temporary Apr-21 @ 06:00 to Apr-21 @ 16:00
TEMPO 2106/2116 5000 TSRA BKN010 FEW040CB BKN060
Visibility Clouds Conditions
5,005 meters
  • Broken at 1,000' AGL
  • Few at 4,000' AGL
  • Broken at 6,000' AGL
  • Thunderstorm
  • Rain
TAF SUSO 210515Z 2106/2206 36010KT 9999 SCT015 BKN080 TX28/2118Z TN19/2110Z TEMPO 2106/2116 5000 TSRA BKN010 FEW040CB BKN060
Issued Apr-21 @ 05:15 UTC
(5 hours ago)
Valid From Apr-21 @ 06:00 UTC
(4 hours ago)
Valid To Apr-22 @ 06:00 UTC
(in 20 hours)
Apr-21 @ 06:00 - Apr-22 @ 06:00
Wind Visibility
360° at 10 knots 10,000+ meters
Clouds
  • Scattered at 1,500' AGL
  • Broken at 8,000' AGL
Temporary Apr-21 @ 06:00 - Apr-21 @ 16:00
Clouds
  • Broken at 1,000' AGL
  • Few at 4,000' AGL
  • Broken at 6,000' AGL
Conditions
  • Thunderstorm
  • Rain